sensor_id;sensor_type;location;lat;lon;timestamp;P1;durP1;ratioP1;P2;durP2;ratioP2
5977;SDS011;3015;51.390;12.256;2023-02-28T00:01:11;5.30;;;4.80;;
5977;SDS011;3015;51.390;12.256;2023-02-28T00:03:38;4.60;;;4.20;;
5977;SDS011;3015;51.390;12.256;2023-02-28T00:06:04;5.10;;;4.67;;
5977;SDS011;3015;51.390;12.256;2023-02-28T00:08:31;5.28;;;4.88;;
5977;SDS011;3015;51.390;12.256;2023-02-28T00:11:00;4.70;;;4.00;;
5977;SDS011;3015;51.390;12.256;2023-02-28T00:13:30;4.93;;;3.70;;
5977;SDS011;3015;51.390;12.256;2023-02-28T00:16:03;4.20;;;3.80;;
5977;SDS011;3015;51.390;12.256;2023-02-28T00:18:30;5.65;;;4.05;;
5977;SDS011;3015;51.390;12.256;2023-02-28T00:20:56;4.57;;;4.27;;
5977;SDS011;3015;51.390;12.256;2023-02-28T00:23:22;6.18;;;4.68;;
5977;SDS011;3015;51.390;12.256;2023-02-28T00:25:48;4.37;;;4.07;;
5977;SDS011;3015;51.390;12.256;2023-02-28T00:28:14;4.30;;;3.90;;
5977;SDS011;3015;51.390;12.256;2023-02-28T00:30:40;5.83;;;3.53;;
5977;SDS011;3015;51.390;12.256;2023-02-28T00:33:07;4.80;;;3.83;;
5977;SDS011;3015;51.390;12.256;2023-02-28T00:35:32;4.10;;;3.63;;
5977;SDS011;3015;51.390;12.256;2023-02-28T00:37:58;4.67;;;4.17;;
5977;SDS011;3015;51.390;12.256;2023-02-28T00:40:23;4.67;;;4.33;;
5977;SDS011;3015;51.390;12.256;2023-02-28T00:42:49;4.67;;;4.27;;
5977;SDS011;3015;51.390;12.256;2023-02-28T00:45:15;4.37;;;3.73;;
5977;SDS011;3015;51.390;12.256;2023-02-28T00:47:40;4.50;;;4.20;;
5977;SDS011;3015;51.390;12.256;2023-02-28T00:50:06;4.60;;;4.20;;
5977;SDS011;3015;51.390;12.256;2023-02-28T00:52:33;4.47;;;4.07;;
5977;SDS011;3015;51.390;12.256;2023-02-28T00:54:59;4.07;;;3.77;;
5977;SDS011;3015;51.390;12.256;2023-02-28T00:57:24;4.73;;;4.30;;
5977;SDS011;3015;51.390;12.256;2023-02-28T00:59:51;3.83;;;3.63;;
5977;SDS011;3015;51.390;12.256;2023-02-28T01:02:19;5.35;;;4.15;;
5977;SDS011;3015;51.390;12.256;2023-02-28T01:04:45;4.32;;;3.92;;
5977;SDS011;3015;51.390;12.256;2023-02-28T01:07:11;4.30;;;4.00;;
5977;SDS011;3015;51.390;12.256;2023-02-28T01:09:37;5.43;;;3.80;;
5977;SDS011;3015;51.390;12.256;2023-02-28T01:12:02;4.37;;;3.43;;
5977;SDS011;3015;51.390;12.256;2023-02-28T01:14:28;4.30;;;3.80;;
5977;SDS011;3015;51.390;12.256;2023-02-28T01:16:54;4.30;;;4.00;;
5977;SDS011;3015;51.390;12.256;2023-02-28T01:19:19;3.73;;;3.43;;
5977;SDS011;3015;51.390;12.256;2023-02-28T01:21:45;3.73;;;3.50;;
5977;SDS011;3015;51.390;12.256;2023-02-28T01:24:11;4.50;;;3.37;;
5977;SDS011;3015;51.390;12.256;2023-02-28T01:26:36;4.03;;;3.73;;
5977;SDS011;3015;51.390;12.256;2023-02-28T01:29:02;3.57;;;3.37;;
5977;SDS011;3015;51.390;12.256;2023-02-28T01:31:27;3.63;;;3.33;;
5977;SDS011;3015;51.390;12.256;2023-02-28T01:33:53;4.50;;;4.07;;
5977;SDS011;3015;51.390;12.256;2023-02-28T01:36:23;3.63;;;3.33;;
5977;SDS011;3015;51.390;12.256;2023-02-28T01:38:49;4.50;;;4.10;;
5977;SDS011;3015;51.390;12.256;2023-02-28T01:46:14;3.63;;;3.33;;
5977;SDS011;3015;51.390;12.256;2023-02-28T01:48:45;4.10;;;3.80;;
5977;SDS011;3015;51.390;12.256;2023-02-28T01:51:25;3.90;;;3.55;;
5977;SDS011;3015;51.390;12.256;2023-02-28T01:54:00;3.55;;;3.30;;
5977;SDS011;3015;51.390;12.256;2023-02-28T01:56:30;4.57;;;4.15;;
5977;SDS011;3015;51.390;12.256;2023-02-28T01:59:01;4.28;;;3.92;;
5977;SDS011;3015;51.390;12.256;2023-02-28T02:01:28;4.47;;;4.07;;
5977;SDS011;3015;51.390;12.256;2023-02-28T02:03:56;4.25;;;3.95;;
5977;SDS011;3015;51.390;12.256;2023-02-28T02:06:38;3.80;;;3.60;;
5977;SDS011;3015;51.390;12.256;2023-02-28T02:09:07;4.25;;;3.92;;
5977;SDS011;3015;51.390;12.256;2023-02-28T02:11:33;4.13;;;3.83;;
5977;SDS011;3015;51.390;12.256;2023-02-28T02:14:12;3.60;;;3.05;;
5977;SDS011;3015;51.390;12.256;2023-02-28T02:33:36;4.15;;;3.85;;
5977;SDS011;3015;51.390;12.256;2023-02-28T02:38:44;8.18;;;4.15;;
5977;SDS011;3015;51.390;12.256;2023-02-28T02:46:43;3.55;;;3.35;;
5977;SDS011;3015;51.390;12.256;2023-02-28T02:49:19;4.82;;;4.40;;
5977;SDS011;3015;51.390;12.256;2023-02-28T02:51:47;4.75;;;4.30;;
5977;SDS011;3015;51.390;12.256;2023-02-28T02:54:19;4.25;;;3.95;;
5977;SDS011;3015;51.390;12.256;2023-02-28T02:56:48;4.80;;;4.32;;
5977;SDS011;3015;51.390;12.256;2023-02-28T02:59:16;3.63;;;3.42;;
5977;SDS011;3015;51.390;12.256;2023-02-28T03:01:46;5.50;;;3.83;;
5977;SDS011;3015;51.390;12.256;2023-02-28T03:04:16;4.97;;;4.47;;
5977;SDS011;3015;51.390;12.256;2023-02-28T03:06:47;3.95;;;3.63;;
5977;SDS011;3015;51.390;12.256;2023-02-28T03:09:13;3.93;;;3.63;;
5977;SDS011;3015;51.390;12.256;2023-02-28T03:11:39;6.30;;;4.40;;
5977;SDS011;3015;51.390;12.256;2023-02-28T03:16:58;4.43;;;4.13;;
5977;SDS011;3015;51.390;12.256;2023-02-28T03:22:32;4.55;;;4.15;;
5977;SDS011;3015;51.390;12.256;2023-02-28T03:25:20;4.75;;;4.28;;
5977;SDS011;3015;51.390;12.256;2023-02-28T03:30:24;6.75;;;4.03;;
5977;SDS011;3015;51.390;12.256;2023-02-28T03:32:58;6.47;;;4.90;;
5977;SDS011;3015;51.390;12.256;2023-02-28T03:35:33;5.55;;;4.22;;
5977;SDS011;3015;51.390;12.256;2023-02-28T03:38:05;5.22;;;4.72;;
5977;SDS011;3015;51.390;12.256;2023-02-28T03:40:47;4.47;;;4.07;;
5977;SDS011;3015;51.390;12.256;2023-02-28T03:43:21;6.05;;;4.55;;
5977;SDS011;3015;51.390;12.256;2023-02-28T03:45:52;5.80;;;4.30;;
5977;SDS011;3015;51.390;12.256;2023-02-28T03:48:22;4.25;;;3.95;;
5977;SDS011;3015;51.390;12.256;2023-02-28T03:50:57;5.72;;;4.43;;
5977;SDS011;3015;51.390;12.256;2023-02-28T03:53:28;5.10;;;4.60;;
5977;SDS011;3015;51.390;12.256;2023-02-28T03:56:01;6.65;;;4.32;;
5977;SDS011;3015;51.390;12.256;2023-02-28T04:01:58;4.40;;;4.10;;
5977;SDS011;3015;51.390;12.256;2023-02-28T04:04:09;4.20;;;3.85;;
5977;SDS011;3015;51.390;12.256;2023-02-28T04:06:35;5.68;;;5.18;;
5977;SDS011;3015;51.390;12.256;2023-02-28T04:09:02;4.77;;;4.47;;
5977;SDS011;3015;51.390;12.256;2023-02-28T04:14:02;6.70;;;5.18;;
5977;SDS011;3015;51.390;12.256;2023-02-28T04:16:30;5.97;;;5.47;;
5977;SDS011;3015;51.390;12.256;2023-02-28T04:18:56;4.70;;;4.30;;
5977;SDS011;3015;51.390;12.256;2023-02-28T04:21:30;5.70;;;5.20;;
5977;SDS011;3015;51.390;12.256;2023-02-28T04:23:57;5.35;;;4.88;;
5977;SDS011;3015;51.390;12.256;2023-02-28T04:26:36;6.40;;;4.53;;
5977;SDS011;3015;51.390;12.256;2023-02-28T04:29:02;5.78;;;5.20;;
5977;SDS011;3015;51.390;12.256;2023-02-28T04:31:29;6.43;;;4.80;;
5977;SDS011;3015;51.390;12.256;2023-02-28T04:33:55;6.43;;;5.40;;
5977;SDS011;3015;51.390;12.256;2023-02-28T04:36:21;5.80;;;5.30;;
5977;SDS011;3015;51.390;12.256;2023-02-28T04:38:48;6.45;;;5.22;;
5977;SDS011;3015;51.390;12.256;2023-02-28T04:41:14;6.40;;;5.50;;
5977;SDS011;3015;51.390;12.256;2023-02-28T04:43:40;6.60;;;5.20;;
5977;SDS011;3015;51.390;12.256;2023-02-28T04:46:06;7.60;;;6.20;;
5977;SDS011;3015;51.390;12.256;2023-02-28T04:48:33;6.22;;;5.63;;
5977;SDS011;3015;51.390;12.256;2023-02-28T04:51:04;7.05;;;5.90;;
5977;SDS011;3015;51.390;12.256;2023-02-28T04:53:33;5.65;;;5.15;;
5977;SDS011;3015;51.390;12.256;2023-02-28T04:55:59;6.30;;;5.70;;
5977;SDS011;3015;51.390;12.256;2023-02-28T04:58:25;5.63;;;5.22;;
5977;SDS011;3015;51.390;12.256;2023-02-28T05:00:52;6.90;;;5.63;;
5977;SDS011;3015;51.390;12.256;2023-02-28T05:03:18;6.55;;;5.90;;
5977;SDS011;3015;51.390;12.256;2023-02-28T05:05:45;6.40;;;5.85;;
5977;SDS011;3015;51.390;12.256;2023-02-28T05:08:11;6.63;;;5.93;;
5977;SDS011;3015;51.390;12.256;2023-02-28T05:10:37;9.83;;;6.47;;
5977;SDS011;3015;51.390;12.256;2023-02-28T05:13:03;6.10;;;5.43;;
5977;SDS011;3015;51.390;12.256;2023-02-28T05:15:29;5.77;;;5.27;;
5977;SDS011;3015;51.390;12.256;2023-02-28T05:17:54;6.33;;;5.83;;
5977;SDS011;3015;51.390;12.256;2023-02-28T05:20:20;6.10;;;5.60;;
5977;SDS011;3015;51.390;12.256;2023-02-28T05:22:46;5.83;;;5.30;;
5977;SDS011;3015;51.390;12.256;2023-02-28T05:25:12;8.53;;;5.67;;
5977;SDS011;3015;51.390;12.256;2023-02-28T05:27:41;6.22;;;5.65;;
5977;SDS011;3015;51.390;12.256;2023-02-28T05:30:06;6.53;;;5.90;;
5977;SDS011;3015;51.390;12.256;2023-02-28T05:32:35;6.40;;;5.85;;
5977;SDS011;3015;51.390;12.256;2023-02-28T05:35:08;7.63;;;6.40;;
5977;SDS011;3015;51.390;12.256;2023-02-28T05:37:35;5.90;;;5.30;;
5977;SDS011;3015;51.390;12.256;2023-02-28T05:40:01;7.20;;;6.70;;
5977;SDS011;3015;51.390;12.256;2023-02-28T05:42:27;7.20;;;6.45;;
5977;SDS011;3015;51.390;12.256;2023-02-28T05:44:53;7.00;;;6.50;;
5977;SDS011;3015;51.390;12.256;2023-02-28T05:47:18;7.70;;;6.50;;
5977;SDS011;3015;51.390;12.256;2023-02-28T05:49:44;6.77;;;6.07;;
5977;SDS011;3015;51.390;12.256;2023-02-28T05:52:09;8.13;;;7.33;;
5977;SDS011;3015;51.390;12.256;2023-02-28T05:54:35;6.40;;;5.80;;
5977;SDS011;3015;51.390;12.256;2023-02-28T05:57:01;7.13;;;6.27;;
5977;SDS011;3015;51.390;12.256;2023-02-28T05:59:26;5.57;;;5.03;;
5977;SDS011;3015;51.390;12.256;2023-02-28T06:01:52;8.60;;;6.70;;
5977;SDS011;3015;51.390;12.256;2023-02-28T06:04:18;6.63;;;6.03;;
5977;SDS011;3015;51.390;12.256;2023-02-28T06:06:45;6.88;;;5.80;;
5977;SDS011;3015;51.390;12.256;2023-02-28T06:09:12;6.65;;;5.55;;
5977;SDS011;3015;51.390;12.256;2023-02-28T06:11:38;6.53;;;6.03;;
5977;SDS011;3015;51.390;12.256;2023-02-28T06:14:04;6.00;;;5.60;;
5977;SDS011;3015;51.390;12.256;2023-02-28T06:16:30;6.20;;;5.63;;
5977;SDS011;3015;51.390;12.256;2023-02-28T06:18:58;6.70;;;6.00;;
5977;SDS011;3015;51.390;12.256;2023-02-28T06:21:25;6.53;;;5.88;;
5977;SDS011;3015;51.390;12.256;2023-02-28T06:23:52;7.35;;;6.65;;
5977;SDS011;3015;51.390;12.256;2023-02-28T06:26:18;6.40;;;5.80;;
5977;SDS011;3015;51.390;12.256;2023-02-28T06:28:44;6.80;;;6.23;;
5977;SDS011;3015;51.390;12.256;2023-02-28T06:31:10;9.80;;;7.87;;
5977;SDS011;3015;51.390;12.256;2023-02-28T06:33:38;9.75;;;7.20;;
5977;SDS011;3015;51.390;12.256;2023-02-28T06:36:05;7.38;;;6.22;;
5977;SDS011;3015;51.390;12.256;2023-02-28T06:38:32;6.78;;;6.20;;
5977;SDS011;3015;51.390;12.256;2023-02-28T06:40:59;6.85;;;5.40;;
5977;SDS011;3015;51.390;12.256;2023-02-28T06:43:27;7.00;;;6.30;;
5977;SDS011;3015;51.390;12.256;2023-02-28T06:45:55;8.15;;;5.97;;
5977;SDS011;3015;51.390;12.256;2023-02-28T06:48:21;6.75;;;6.13;;
5977;SDS011;3015;51.390;12.256;2023-02-28T06:50:47;8.00;;;7.17;;
5977;SDS011;3015;51.390;12.256;2023-02-28T06:53:13;6.33;;;5.60;;
5977;SDS011;3015;51.390;12.256;2023-02-28T06:55:39;6.32;;;5.70;;
5977;SDS011;3015;51.390;12.256;2023-02-28T06:58:05;6.33;;;5.70;;
5977;SDS011;3015;51.390;12.256;2023-02-28T07:00:43;6.45;;;5.85;;
5977;SDS011;3015;51.390;12.256;2023-02-28T07:03:10;7.13;;;6.10;;
5977;SDS011;3015;51.390;12.256;2023-02-28T07:05:37;6.22;;;5.63;;
5977;SDS011;3015;51.390;12.256;2023-02-28T07:08:04;7.22;;;5.38;;
5977;SDS011;3015;51.390;12.256;2023-02-28T07:10:31;6.18;;;5.53;;
5977;SDS011;3015;51.390;12.256;2023-02-28T07:12:57;6.05;;;5.47;;
5977;SDS011;3015;51.390;12.256;2023-02-28T07:15:23;6.45;;;5.28;;
5977;SDS011;3015;51.390;12.256;2023-02-28T07:17:49;7.60;;;6.40;;
5977;SDS011;3015;51.390;12.256;2023-02-28T07:20:15;7.70;;;5.20;;
5977;SDS011;3015;51.390;12.256;2023-02-28T07:22:41;9.53;;;5.70;;
5977;SDS011;3015;51.390;12.256;2023-02-28T07:25:06;5.33;;;4.93;;
5977;SDS011;3015;51.390;12.256;2023-02-28T07:27:33;5.15;;;4.75;;
5977;SDS011;3015;51.390;12.256;2023-02-28T07:29:59;8.18;;;5.75;;
5977;SDS011;3015;51.390;12.256;2023-02-28T07:32:26;7.22;;;5.15;;
5977;SDS011;3015;51.390;12.256;2023-02-28T07:34:52;7.20;;;6.50;;
5977;SDS011;3015;51.390;12.256;2023-02-28T07:37:18;6.50;;;5.90;;
5977;SDS011;3015;51.390;12.256;2023-02-28T07:39:44;9.47;;;6.67;;
5977;SDS011;3015;51.390;12.256;2023-02-28T07:42:09;6.63;;;6.00;;
5977;SDS011;3015;51.390;12.256;2023-02-28T07:44:37;7.78;;;6.15;;
5977;SDS011;3015;51.390;12.256;2023-02-28T07:47:08;7.57;;;6.88;;
5977;SDS011;3015;51.390;12.256;2023-02-28T07:49:35;7.50;;;6.18;;
5977;SDS011;3015;51.390;12.256;2023-02-28T07:52:02;6.82;;;6.15;;
5977;SDS011;3015;51.390;12.256;2023-02-28T07:54:28;7.82;;;6.18;;
5977;SDS011;3015;51.390;12.256;2023-02-28T07:56:54;7.37;;;6.67;;
5977;SDS011;3015;51.390;12.256;2023-02-28T07:59:20;6.60;;;6.03;;
5977;SDS011;3015;51.390;12.256;2023-02-28T08:01:45;6.47;;;5.57;;
5977;SDS011;3015;51.390;12.256;2023-02-28T08:04:11;6.77;;;6.27;;
5977;SDS011;3015;51.390;12.256;2023-02-28T08:06:37;8.10;;;6.40;;
5977;SDS011;3015;51.390;12.256;2023-02-28T08:09:02;7.10;;;6.40;;
5977;SDS011;3015;51.390;12.256;2023-02-28T08:11:28;6.60;;;6.00;;
5977;SDS011;3015;51.390;12.256;2023-02-28T08:13:54;6.33;;;5.70;;
5977;SDS011;3015;51.390;12.256;2023-02-28T08:16:20;10.60;;;7.10;;
5977;SDS011;3015;51.390;12.256;2023-02-28T08:18:47;8.00;;;6.15;;
5977;SDS011;3015;51.390;12.256;2023-02-28T08:21:17;7.05;;;6.38;;
5977;SDS011;3015;51.390;12.256;2023-02-28T08:23:43;5.20;;;4.80;;
5977;SDS011;3015;51.390;12.256;2023-02-28T08:26:11;5.50;;;4.90;;
5977;SDS011;3015;51.390;12.256;2023-02-28T08:28:36;5.90;;;5.40;;
5977;SDS011;3015;51.390;12.256;2023-02-28T08:31:08;5.60;;;5.20;;
5977;SDS011;3015;51.390;12.256;2023-02-28T08:33:34;5.47;;;4.97;;
5977;SDS011;3015;51.390;12.256;2023-02-28T08:36:00;6.00;;;5.37;;
5977;SDS011;3015;51.390;12.256;2023-02-28T08:38:26;5.17;;;4.73;;
5977;SDS011;3015;51.390;12.256;2023-02-28T08:40:58;5.30;;;4.80;;
5977;SDS011;3015;51.390;12.256;2023-02-28T08:43:25;6.20;;;4.95;;
5977;SDS011;3015;51.390;12.256;2023-02-28T08:45:51;5.00;;;4.60;;
5977;SDS011;3015;51.390;12.256;2023-02-28T08:48:17;5.15;;;4.85;;
5977;SDS011;3015;51.390;12.256;2023-02-28T08:50:43;5.20;;;4.70;;
5977;SDS011;3015;51.390;12.256;2023-02-28T08:53:09;5.37;;;4.97;;
5977;SDS011;3015;51.390;12.256;2023-02-28T08:55:34;5.30;;;4.80;;
5977;SDS011;3015;51.390;12.256;2023-02-28T08:58:00;5.30;;;4.87;;
5977;SDS011;3015;51.390;12.256;2023-02-28T09:00:26;5.10;;;4.60;;
5977;SDS011;3015;51.390;12.256;2023-02-28T09:02:52;6.00;;;5.40;;
5977;SDS011;3015;51.390;12.256;2023-02-28T09:05:17;3.73;;;3.43;;
5977;SDS011;3015;51.390;12.256;2023-02-28T09:07:43;4.73;;;4.40;;
5977;SDS011;3015;51.390;12.256;2023-02-28T09:10:09;4.70;;;4.30;;
5977;SDS011;3015;51.390;12.256;2023-02-28T09:12:35;4.50;;;4.10;;
5977;SDS011;3015;51.390;12.256;2023-02-28T09:15:01;5.17;;;4.77;;
5977;SDS011;3015;51.390;12.256;2023-02-28T09:17:27;4.83;;;4.47;;
5977;SDS011;3015;51.390;12.256;2023-02-28T09:19:53;4.60;;;4.30;;
5977;SDS011;3015;51.390;12.256;2023-02-28T09:22:18;5.20;;;4.90;;
5977;SDS011;3015;51.390;12.256;2023-02-28T09:24:44;4.53;;;4.20;;
5977;SDS011;3015;51.390;12.256;2023-02-28T09:27:09;4.90;;;4.30;;
5977;SDS011;3015;51.390;12.256;2023-02-28T09:29:35;5.20;;;4.80;;
5977;SDS011;3015;51.390;12.256;2023-02-28T09:32:01;5.30;;;4.90;;
5977;SDS011;3015;51.390;12.256;2023-02-28T09:34:27;5.20;;;4.70;;
5977;SDS011;3015;51.390;12.256;2023-02-28T09:36:55;5.80;;;5.30;;
5977;SDS011;3015;51.390;12.256;2023-02-28T09:39:21;5.90;;;5.40;;
5977;SDS011;3015;51.390;12.256;2023-02-28T09:41:50;5.70;;;5.22;;
5977;SDS011;3015;51.390;12.256;2023-02-28T09:47:27;5.07;;;4.68;;
5977;SDS011;3015;51.390;12.256;2023-02-28T09:50:22;5.03;;;4.53;;
5977;SDS011;3015;51.390;12.256;2023-02-28T09:52:44;4.28;;;3.83;;
5977;SDS011;3015;51.390;12.256;2023-02-28T09:55:22;4.95;;;4.45;;
5977;SDS011;3015;51.390;12.256;2023-02-28T09:57:52;4.38;;;4.07;;
5977;SDS011;3015;51.390;12.256;2023-02-28T10:05:16;4.60;;;4.30;;
5977;SDS011;3015;51.390;12.256;2023-02-28T10:10:38;4.28;;;3.78;;
5977;SDS011;3015;51.390;12.256;2023-02-28T10:16:03;5.33;;;4.73;;
5977;SDS011;3015;51.390;12.256;2023-02-28T10:18:54;5.23;;;4.73;;
5977;SDS011;3015;51.390;12.256;2023-02-28T10:21:30;5.43;;;5.03;;
5977;SDS011;3015;51.390;12.256;2023-02-28T10:24:07;5.20;;;4.80;;
5977;SDS011;3015;51.390;12.256;2023-02-28T10:26:43;5.90;;;5.40;;
5977;SDS011;3015;51.390;12.256;2023-02-28T10:29:12;7.13;;;5.07;;
5977;SDS011;3015;51.390;12.256;2023-02-28T10:31:38;5.63;;;5.33;;
5977;SDS011;3015;51.390;12.256;2023-02-28T10:34:04;5.90;;;5.40;;
5977;SDS011;3015;51.390;12.256;2023-02-28T10:36:31;5.00;;;4.60;;
5977;SDS011;3015;51.390;12.256;2023-02-28T10:38:57;5.50;;;4.97;;
5977;SDS011;3015;51.390;12.256;2023-02-28T10:41:31;5.00;;;4.70;;
5977;SDS011;3015;51.390;12.256;2023-02-28T10:49:57;5.50;;;5.10;;
5977;SDS011;3015;51.390;12.256;2023-02-28T10:55:24;5.60;;;5.03;;
5977;SDS011;3015;51.390;12.256;2023-02-28T10:57:51;5.87;;;5.37;;
5977;SDS011;3015;51.390;12.256;2023-02-28T11:00:21;5.70;;;5.30;;
5977;SDS011;3015;51.390;12.256;2023-02-28T11:02:50;6.17;;;5.70;;
5977;SDS011;3015;51.390;12.256;2023-02-28T11:05:32;5.70;;;5.13;;
5977;SDS011;3015;51.390;12.256;2023-02-28T11:10:37;5.97;;;5.57;;
5977;SDS011;3015;51.390;12.256;2023-02-28T11:13:03;6.63;;;6.03;;
5977;SDS011;3015;51.390;12.256;2023-02-28T11:18:52;6.00;;;5.50;;
5977;SDS011;3015;51.390;12.256;2023-02-28T11:21:26;6.00;;;5.60;;
5977;SDS011;3015;51.390;12.256;2023-02-28T11:24:44;5.93;;;5.50;;
5977;SDS011;3015;51.390;12.256;2023-02-28T11:26:47;6.27;;;5.77;;
5977;SDS011;3015;51.390;12.256;2023-02-28T11:34:34;7.00;;;6.40;;
5977;SDS011;3015;51.390;12.256;2023-02-28T11:37:01;6.37;;;5.87;;
5977;SDS011;3015;51.390;12.256;2023-02-28T11:39:30;7.33;;;5.77;;
5977;SDS011;3015;51.390;12.256;2023-02-28T11:52:53;5.97;;;5.23;;
5977;SDS011;3015;51.390;12.256;2023-02-28T11:57:59;6.90;;;6.30;;
5977;SDS011;3015;51.390;12.256;2023-02-28T12:01:07;5.97;;;5.57;;
5977;SDS011;3015;51.390;12.256;2023-02-28T12:12:04;6.70;;;6.20;;
5977;SDS011;3015;51.390;12.256;2023-02-28T12:25:48;9.03;;;7.93;;
5977;SDS011;3015;51.390;12.256;2023-02-28T12:28:29;7.23;;;6.73;;
5977;SDS011;3015;51.390;12.256;2023-02-28T12:31:11;7.97;;;7.27;;
5977;SDS011;3015;51.390;12.256;2023-02-28T12:33:46;8.20;;;7.60;;
5977;SDS011;3015;51.390;12.256;2023-02-28T12:36:17;7.70;;;6.90;;
5977;SDS011;3015;51.390;12.256;2023-02-28T12:44:11;7.23;;;6.73;;
5977;SDS011;3015;51.390;12.256;2023-02-28T12:46:42;8.97;;;8.07;;
5977;SDS011;3015;51.390;12.256;2023-02-28T12:49:27;9.03;;;8.10;;
5977;SDS011;3015;51.390;12.256;2023-02-28T12:51:56;8.53;;;7.83;;
5977;SDS011;3015;51.390;12.256;2023-02-28T13:00:19;9.07;;;8.37;;
5977;SDS011;3015;51.390;12.256;2023-02-28T13:08:23;8.80;;;7.90;;
5977;SDS011;3015;51.390;12.256;2023-02-28T13:11:10;8.90;;;8.20;;
5977;SDS011;3015;51.390;12.256;2023-02-28T13:13:55;9.60;;;8.10;;
5977;SDS011;3015;51.390;12.256;2023-02-28T13:19:46;9.00;;;8.40;;
5977;SDS011;3015;51.390;12.256;2023-02-28T13:22:49;7.90;;;7.30;;
5977;SDS011;3015;51.390;12.256;2023-02-28T13:27:59;9.50;;;8.70;;
5977;SDS011;3015;51.390;12.256;2023-02-28T13:38:55;8.40;;;7.80;;
5977;SDS011;3015;51.390;12.256;2023-02-28T13:46:26;9.37;;;8.60;;
5977;SDS011;3015;51.390;12.256;2023-02-28T13:48:52;8.77;;;8.17;;
5977;SDS011;3015;51.390;12.256;2023-02-28T14:03:07;8.83;;;8.03;;
5977;SDS011;3015;51.390;12.256;2023-02-28T14:06:07;8.13;;;7.63;;
5977;SDS011;3015;51.390;12.256;2023-02-28T14:08:36;8.73;;;7.93;;
5977;SDS011;3015;51.390;12.256;2023-02-28T14:11:04;9.43;;;8.67;;
5977;SDS011;3015;51.390;12.256;2023-02-28T14:16:13;8.47;;;7.70;;
5977;SDS011;3015;51.390;12.256;2023-02-28T14:18:41;9.13;;;8.23;;
5977;SDS011;3015;51.390;12.256;2023-02-28T14:21:20;9.87;;;9.17;;
5977;SDS011;3015;51.390;12.256;2023-02-28T14:32:54;9.67;;;8.67;;
5977;SDS011;3015;51.390;12.256;2023-02-28T14:37:20;9.13;;;8.40;;
5977;SDS011;3015;51.390;12.256;2023-02-28T14:39:55;10.60;;;9.63;;
5977;SDS011;3015;51.390;12.256;2023-02-28T14:42:34;8.40;;;7.67;;
5977;SDS011;3015;51.390;12.256;2023-02-28T14:45:03;8.80;;;8.10;;
5977;SDS011;3015;51.390;12.256;2023-02-28T14:47:32;8.70;;;8.00;;
5977;SDS011;3015;51.390;12.256;2023-02-28T14:50:00;10.03;;;9.23;;
5977;SDS011;3015;51.390;12.256;2023-02-28T14:52:29;8.90;;;8.30;;
5977;SDS011;3015;51.390;12.256;2023-02-28T14:55:00;10.67;;;9.87;;
5977;SDS011;3015;51.390;12.256;2023-02-28T14:57:34;9.13;;;8.23;;
5977;SDS011;3015;51.390;12.256;2023-02-28T15:02:50;9.37;;;8.67;;
5977;SDS011;3015;51.390;12.256;2023-02-28T15:05:31;9.60;;;8.80;;
5977;SDS011;3015;51.390;12.256;2023-02-28T15:08:05;10.40;;;9.60;;
5977;SDS011;3015;51.390;12.256;2023-02-28T15:10:36;10.53;;;9.50;;
5977;SDS011;3015;51.390;12.256;2023-02-28T15:13:12;10.13;;;9.10;;
5977;SDS011;3015;51.390;12.256;2023-02-28T15:15:56;10.68;;;9.82;;
5977;SDS011;3015;51.390;12.256;2023-02-28T15:21:15;8.77;;;7.90;;
5977;SDS011;3015;51.390;12.256;2023-02-28T15:23:52;9.47;;;8.60;;
5977;SDS011;3015;51.390;12.256;2023-02-28T15:26:25;9.93;;;9.02;;
5977;SDS011;3015;51.390;12.256;2023-02-28T15:28:54;9.60;;;8.90;;
5977;SDS011;3015;51.390;12.256;2023-02-28T15:31:26;10.18;;;9.18;;
5977;SDS011;3015;51.390;12.256;2023-02-28T15:33:54;9.82;;;8.98;;
5977;SDS011;3015;51.390;12.256;2023-02-28T15:36:20;10.20;;;9.20;;
5977;SDS011;3015;51.390;12.256;2023-02-28T15:38:50;9.35;;;8.65;;
5977;SDS011;3015;51.390;12.256;2023-02-28T15:41:36;9.43;;;8.63;;
5977;SDS011;3015;51.390;12.256;2023-02-28T15:46:54;10.23;;;8.90;;
5977;SDS011;3015;51.390;12.256;2023-02-28T15:49:21;11.73;;;8.75;;
5977;SDS011;3015;51.390;12.256;2023-02-28T15:51:48;10.82;;;9.73;;
5977;SDS011;3015;51.390;12.256;2023-02-28T15:54:19;10.70;;;9.70;;
5977;SDS011;3015;51.390;12.256;2023-02-28T15:56:52;9.70;;;8.90;;
5977;SDS011;3015;51.390;12.256;2023-02-28T15:59:27;10.00;;;8.80;;
5977;SDS011;3015;51.390;12.256;2023-02-28T16:02:11;11.02;;;8.55;;
5977;SDS011;3015;51.390;12.256;2023-02-28T16:07:21;9.05;;;8.10;;
5977;SDS011;3015;51.390;12.256;2023-02-28T16:09:46;9.40;;;8.30;;
5977;SDS011;3015;51.390;12.256;2023-02-28T16:12:13;9.20;;;8.10;;
5977;SDS011;3015;51.390;12.256;2023-02-28T16:14:39;9.27;;;8.38;;
5977;SDS011;3015;51.390;12.256;2023-02-28T16:17:26;9.82;;;8.85;;
5977;SDS011;3015;51.390;12.256;2023-02-28T16:19:52;9.18;;;8.20;;
5977;SDS011;3015;51.390;12.256;2023-02-28T16:22:19;11.38;;;10.45;;
5977;SDS011;3015;51.390;12.256;2023-02-28T16:24:44;9.27;;;8.50;;
5977;SDS011;3015;51.390;12.256;2023-02-28T16:27:14;10.53;;;9.43;;
5977;SDS011;3015;51.390;12.256;2023-02-28T16:29:43;9.70;;;8.80;;
5977;SDS011;3015;51.390;12.256;2023-02-28T16:32:11;8.98;;;8.27;;
5977;SDS011;3015;51.390;12.256;2023-02-28T16:34:39;10.15;;;9.25;;
5977;SDS011;3015;51.390;12.256;2023-02-28T16:37:09;10.43;;;9.43;;
5977;SDS011;3015;51.390;12.256;2023-02-28T16:39:35;9.90;;;8.80;;
5977;SDS011;3015;51.390;12.256;2023-02-28T16:42:01;9.80;;;9.00;;
5977;SDS011;3015;51.390;12.256;2023-02-28T16:44:31;9.83;;;8.40;;
5977;SDS011;3015;51.390;12.256;2023-02-28T16:47:00;10.45;;;9.45;;
5977;SDS011;3015;51.390;12.256;2023-02-28T16:49:27;9.68;;;8.93;;
5977;SDS011;3015;51.390;12.256;2023-02-28T16:51:53;10.60;;;9.70;;
5977;SDS011;3015;51.390;12.256;2023-02-28T16:54:18;11.10;;;10.00;;
5977;SDS011;3015;51.390;12.256;2023-02-28T16:56:45;11.23;;;10.27;;
5977;SDS011;3015;51.390;12.256;2023-02-28T16:59:12;10.00;;;9.10;;
5977;SDS011;3015;51.390;12.256;2023-02-28T17:01:39;10.52;;;9.45;;
5977;SDS011;3015;51.390;12.256;2023-02-28T17:04:05;11.07;;;9.33;;
5977;SDS011;3015;51.390;12.256;2023-02-28T17:06:31;10.30;;;9.50;;
5977;SDS011;3015;51.390;12.256;2023-02-28T17:08:57;9.97;;;9.00;;
5977;SDS011;3015;51.390;12.256;2023-02-28T17:11:24;10.18;;;9.15;;
5977;SDS011;3015;51.390;12.256;2023-02-28T17:13:50;10.73;;;9.82;;
5977;SDS011;3015;51.390;12.256;2023-02-28T17:16:37;10.50;;;9.50;;
5977;SDS011;3015;51.390;12.256;2023-02-28T17:19:05;13.00;;;9.30;;
5977;SDS011;3015;51.390;12.256;2023-02-28T17:21:32;10.05;;;9.10;;
5977;SDS011;3015;51.390;12.256;2023-02-28T17:23:58;9.55;;;8.70;;
5977;SDS011;3015;51.390;12.256;2023-02-28T17:26:24;10.47;;;9.43;;
5977;SDS011;3015;51.390;12.256;2023-02-28T17:28:51;9.27;;;8.43;;
5977;SDS011;3015;51.390;12.256;2023-02-28T17:31:17;9.43;;;8.38;;
5977;SDS011;3015;51.390;12.256;2023-02-28T17:33:43;11.20;;;8.98;;
5977;SDS011;3015;51.390;12.256;2023-02-28T17:36:16;10.77;;;9.65;;
5977;SDS011;3015;51.390;12.256;2023-02-28T17:38:47;10.85;;;9.32;;
5977;SDS011;3015;51.390;12.256;2023-02-28T17:41:13;9.65;;;8.63;;
5977;SDS011;3015;51.390;12.256;2023-02-28T17:43:39;10.57;;;9.00;;
5977;SDS011;3015;51.390;12.256;2023-02-28T17:46:08;9.73;;;8.73;;
5977;SDS011;3015;51.390;12.256;2023-02-28T17:48:46;12.50;;;9.52;;
5977;SDS011;3015;51.390;12.256;2023-02-28T17:51:16;10.68;;;8.50;;
5977;SDS011;3015;51.390;12.256;2023-02-28T17:53:43;9.68;;;8.77;;
5977;SDS011;3015;51.390;12.256;2023-02-28T17:56:16;10.02;;;8.60;;
5977;SDS011;3015;51.390;12.256;2023-02-28T17:58:44;8.77;;;7.38;;
5977;SDS011;3015;51.390;12.256;2023-02-28T18:01:10;8.93;;;8.00;;
5977;SDS011;3015;51.390;12.256;2023-02-28T18:03:37;11.18;;;9.25;;
5977;SDS011;3015;51.390;12.256;2023-02-28T18:06:03;9.18;;;8.02;;
5977;SDS011;3015;51.390;12.256;2023-02-28T18:08:30;10.45;;;9.45;;
5977;SDS011;3015;51.390;12.256;2023-02-28T18:10:56;9.90;;;9.00;;
5977;SDS011;3015;51.390;12.256;2023-02-28T18:13:22;8.53;;;7.77;;
5977;SDS011;3015;51.390;12.256;2023-02-28T18:15:47;11.80;;;8.00;;